Time;durP1;ratioP1;P1;durP2;ratioP2;P2;SDS_P1;SDS_P2;PMS_P1;PMS_P2;Temp;Humidity;BMP_temperature;BMP_pressure;BME280_temperature;BME280_humidity;BME280_pressure;Samples;Min_cycle;Max_cycle;Signal;HPM_P1;HPM_P2
2022/12/31 00:01:41;;;;;;;1.50;1.40;;;;;;;11.12;100.00;100293.78;6192578;23;20423;-76
2022/12/31 00:04:07;;;;;;;2.00;1.63;;;;;;;11.12;100.00;100301.03;6218753;23;20351;-76
2022/12/31 00:06:35;;;;;;;1.90;1.80;;;;;;;11.11;100.00;100292.31;6219606;23;20020;-76
2022/12/31 00:09:05;;;;;;;2.45;1.70;;;;;;;11.12;100.00;100291.13;6219089;23;20013;-76
2022/12/31 00:11:32;;;;;;;2.15;1.90;;;;;;;11.11;100.00;100291.56;6219969;23;20088;-76
2022/12/31 00:13:59;;;;;;;2.20;2.00;;;;;;;11.14;100.00;100285.34;6219623;23;20021;-76
2022/12/31 00:16:29;;;;;;;1.92;1.83;;;;;;;11.12;100.00;100288.47;6219328;23;20013;-76
2022/12/31 00:18:58;;;;;;;2.88;2.20;;;;;;;11.13;100.00;100294.53;6219543;23;20017;-76
2022/12/31 00:21:26;;;;;;;2.90;2.13;;;;;;;11.12;100.00;100299.13;6219716;23;20135;-76
2022/12/31 00:23:53;;;;;;;2.20;2.10;;;;;;;11.14;100.00;100296.72;6218792;23;20021;-76
2022/12/31 00:26:26;;;;;;;2.38;2.28;;;;;;;11.15;100.00;100294.81;6192508;23;20021;-76
2022/12/31 00:28:54;;;;;;;6.57;3.40;;;;;;;11.15;100.00;100310.78;6219520;23;20021;-76
2022/12/31 00:31:25;;;;;;;3.20;2.60;;;;;;;11.15;100.00;100310.78;6219412;23;20466;-76
2022/12/31 00:33:51;;;;;;;2.80;2.70;;;;;;;11.15;100.00;100302.78;6192423;23;20021;-76
2022/12/31 00:36:26;;;;;;;2.50;2.40;;;;;;;11.15;100.00;100305.47;6191958;23;20022;-76
2022/12/31 00:38:54;;;;;;;2.90;2.30;;;;;;;11.15;100.00;100308.13;6219629;23;20400;-76
2022/12/31 00:41:22;;;;;;;4.38;2.60;;;;;;;11.15;100.00;100311.53;6219089;23;20076;-76
2022/12/31 00:43:49;;;;;;;2.25;2.15;;;;;;;11.15;100.00;100306.19;6219113;23;20087;-76
2022/12/31 00:46:16;;;;;;;6.28;2.83;;;;;;;11.16;100.00;100314.94;6219393;23;20399;-75
2022/12/31 00:48:43;;;;;;;2.17;1.98;;;;;;;11.14;100.00;100318.03;6192883;23;20375;-76
2022/12/31 00:51:13;;;;;;;3.53;1.70;;;;;;;11.14;100.00;100325.31;6218354;23;20017;-76
2022/12/31 00:53:40;;;;;;;1.85;1.75;;;;;;;11.13;100.00;100321.91;6219827;23;20045;-76
2022/12/31 00:56:14;;;;;;;1.83;1.73;;;;;;;11.13;100.00;100315.84;6218893;23;20041;-76
2022/12/31 00:58:41;;;;;;;5.88;1.67;;;;;;;11.12;100.00;100317.03;6192736;23;20467;-76
2022/12/31 01:01:25;;;;;;;2.88;1.85;;;;;;;11.10;100.00;100317.47;6218521;23;20045;-76
2022/12/31 01:03:56;;;;;;;1.70;1.60;;;;;;;11.10;100.00;100308.75;6219567;23;20029;-76
2022/12/31 01:06:23;;;;;;;1.77;1.67;;;;;;;11.08;100.00;100308.47;6218520;23;20410;-76
2022/12/31 01:08:50;;;;;;;1.65;1.55;;;;;;;11.08;100.00;100311.13;6192217;23;20053;-76
2022/12/31 01:11:18;;;;;;;1.88;1.58;;;;;;;11.05;100.00;100304.03;6219274;23;20013;-76
2022/12/31 01:13:47;;;;;;;1.92;1.55;;;;;;;11.04;100.00;100303.28;6220113;23;20017;-76
2022/12/31 01:16:15;;;;;;;1.60;1.50;;;;;;;11.03;100.00;100321.19;6219106;23;20023;-76
2022/12/31 01:18:41;;;;;;;1.52;1.42;;;;;;;11.01;100.00;100309.53;6192979;23;20013;-76
2022/12/31 01:21:10;;;;;;;3.67;1.58;;;;;;;11.00;100.00;100316.03;6218261;23;20450;-76
2022/12/31 01:23:36;;;;;;;1.63;1.52;;;;;;;11.00;100.00;100318.69;6219558;23;20137;-76
2022/12/31 01:26:06;;;;;;;2.10;1.67;;;;;;;10.98;100.00;100318.41;6218984;23;20439;-76
2022/12/31 01:28:33;;;;;;;3.15;1.55;;;;;;;10.95;100.00;100314.72;6192251;23;20024;-76
2022/12/31 01:31:09;;;;;;;2.63;1.60;;;;;;;10.95;100.00;100314.00;6218974;23;20478;-76
2022/12/31 01:33:37;;;;;;;3.28;1.58;;;;;;;10.93;100.00;100309.13;6192180;23;20476;-76
2022/12/31 01:36:06;;;;;;;2.22;1.58;;;;;;;10.92;100.00;100320.94;6218177;23;20013;-76
2022/12/31 01:38:34;;;;;;;1.98;1.65;;;;;;;10.92;100.00;100317.56;6219328;23;20024;-76
2022/12/31 01:41:01;;;;;;;3.30;1.90;;;;;;;10.90;100.00;100317.25;6218757;23;20062;-77
2022/12/31 01:44:14;;;;;;;3.70;1.60;;;;;;;10.89;100.00;100313.13;6219088;23;20113;-77
2022/12/31 01:46:43;;;;;;;2.10;1.83;;;;;;;10.87;100.00;100316.25;6205674;23;20021;-77
2022/12/31 01:49:19;;;;;;;1.58;1.48;;;;;;;10.86;100.00;100317.44;6217685;23;20021;-76
2022/12/31 01:51:50;;;;;;;4.20;1.70;;;;;;;10.85;100.00;100320.53;6219322;23;20017;-76
2022/12/31 01:54:20;;;;;;;3.05;1.65;;;;;;;10.84;100.00;100319.06;6218582;23;20103;-76
2022/12/31 01:56:49;;;;;;;3.95;1.60;;;;;;;10.82;100.00;100318.78;6218725;23;20017;-76
2022/12/31 01:59:17;;;;;;;1.83;1.60;;;;;;;10.83;100.00;100328.25;6218891;23;20451;-76
2022/12/31 02:01:46;;;;;;;3.45;1.88;;;;;;;10.81;100.00;100336.69;6214500;23;20041;-76
2022/12/31 02:04:15;;;;;;;2.20;1.85;;;;;;;10.81;100.00;100346.59;6215741;23;20466;-76
2022/12/31 02:06:52;;;;;;;4.05;1.63;;;;;;;10.80;100.00;100343.19;6190211;23;20055;-76
2022/12/31 02:09:19;;;;;;;2.70;1.85;;;;;;;10.79;100.00;100341.75;6218823;23;20017;-76
2022/12/31 02:11:46;;;;;;;4.82;2.00;;;;;;;10.79;100.00;100327.69;6192419;23;20100;-76
2022/12/31 02:14:21;;;;;;;2.08;1.88;;;;;;;10.79;100.00;100314.38;6218491;23;20427;-76
2022/12/31 02:17:06;;;;;;;3.13;1.80;;;;;;;10.78;100.00;100312.91;6220710;23;20426;-76
2022/12/31 02:20:14;;;;;;;1.67;1.58;;;;;;;10.78;100.00;100302.25;6218143;23;20017;-76
2022/12/31 02:23:14;;;;;;;3.60;1.92;;;;;;;10.75;100.00;100306.56;6220072;23;20020;-76
2022/12/31 02:25:56;;;;;;;2.35;1.73;;;;;;;10.75;100.00;100300.50;6220053;23;20058;-77
2022/12/31 02:28:35;;;;;;;3.08;1.88;;;;;;;10.74;100.00;100305.06;6219921;23;20420;-76
2022/12/31 02:31:15;;;;;;;3.67;1.40;;;;;;;10.74;100.00;100301.69;6193030;23;20075;-77
2022/12/31 02:33:56;;;;;;;2.08;1.70;;;;;;;10.73;100.00;100276.97;6219690;23;20017;-77
2022/12/31 02:36:29;;;;;;;2.47;1.88;;;;;;;10.73;100.00;100268.25;6219643;23;20017;-77
2022/12/31 02:38:57;;;;;;;1.60;1.50;;;;;;;10.70;100.00;100277.88;6219739;23;20017;-76
2022/12/31 02:44:29;;;;;;;2.10;1.50;;;;;;;10.69;100.00;100274.47;6219984;23;20044;-76
2022/12/31 02:47:07;;;;;;;1.38;1.27;;;;;;;10.68;100.00;100280.25;6219469;23;20056;-77
2022/12/31 02:49:37;;;;;;;1.35;1.00;;;;;;;10.66;100.00;100290.63;6219825;23;20355;-77
2022/12/31 02:52:23;;;;;;;4.55;1.27;;;;;;;10.63;100.00;100302.16;6219417;23;20028;-77
2022/12/31 02:55:01;;;;;;;1.08;1.08;;;;;;;10.62;100.00;100312.06;6219843;23;20017;-77
2022/12/31 02:57:41;;;;;;;3.20;0.85;;;;;;;10.60;100.00;100319.03;6217911;23;20021;-77
2022/12/31 03:03:00;;;;;;;2.43;1.13;;;;;;;10.57;100.00;100335.88;6219231;23;20013;-76
2022/12/31 03:05:31;;;;;;;2.00;1.10;;;;;;;10.56;100.00;100337.06;6219476;23;20350;-76
2022/12/31 03:07:57;;;;;;;1.85;1.08;;;;;;;10.55;100.00;100340.91;6219195;23;20028;-76
2022/12/31 03:10:24;;;;;;;1.67;1.00;;;;;;;10.53;100.00;100346.69;6219396;23;20020;-76
2022/12/31 03:12:51;;;;;;;1.30;0.70;;;;;;;10.54;100.00;100347.44;6219613;23;20017;-76
2022/12/31 03:15:22;;;;;;;1.55;1.10;;;;;;;10.50;100.00;100344.91;6219363;23;20009;-76
2022/12/31 03:17:48;;;;;;;0.80;0.80;;;;;;;10.51;100.00;100343.00;6219270;23;20021;-76
2022/12/31 03:23:04;;;;;;;1.10;0.98;;;;;;;10.48;100.00;100338.56;6219246;23;20447;-75
2022/12/31 03:25:34;;;;;;;1.70;0.98;;;;;;;10.47;100.00;100339.75;6219645;23;20021;-76
2022/12/31 03:28:03;;;;;;;1.73;1.00;;;;;;;10.45;100.00;100342.13;6219597;23;20024;-76
2022/12/31 03:30:31;;;;;;;3.00;1.23;;;;;;;10.43;100.00;100350.56;6219473;23;20017;-76
2022/12/31 03:32:58;;;;;;;2.28;0.93;;;;;;;10.45;100.00;100344.78;6219591;23;20044;-76
2022/12/31 03:35:26;;;;;;;3.13;1.10;;;;;;;10.43;100.00;100345.22;6219366;23;20025;-76
2022/12/31 03:37:53;;;;;;;3.40;0.93;;;;;;;10.41;100.00;100350.25;6219755;23;20024;-76
2022/12/31 03:40:21;;;;;;;2.47;0.93;;;;;;;10.40;100.00;100348.06;6219790;23;20020;-76
2022/12/31 03:42:49;;;;;;;4.00;1.17;;;;;;;10.37;100.00;100339.06;6218848;23;20013;-76
2022/12/31 03:45:16;;;;;;;1.65;1.00;;;;;;;10.34;100.00;100340.69;6219459;23;20036;-76
2022/12/31 03:47:43;;;;;;;0.95;0.88;;;;;;;10.33;100.00;100344.53;6220009;23;20021;-76
2022/12/31 03:50:12;;;;;;;1.73;1.00;;;;;;;10.32;100.00;100313.78;6192747;23;20076;-76
2022/12/31 03:52:39;;;;;;;2.35;1.10;;;;;;;10.30;100.00;100324.13;6193139;23;20465;-76
2022/12/31 03:55:07;;;;;;;2.45;1.10;;;;;;;10.30;100.00;100334.03;6219194;23;20017;-76
2022/12/31 03:57:34;;;;;;;1.67;0.80;;;;;;;10.28;100.00;100331.09;6220030;23;20021;-76
2022/12/31 04:00:02;;;;;;;2.92;1.10;;;;;;;10.27;100.00;100334.94;6192232;23;20572;-76
2022/12/31 04:02:29;;;;;;;5.32;1.10;;;;;;;10.25;100.00;100330.06;6219387;23;20028;-76
2022/12/31 04:04:56;;;;;;;1.10;0.90;;;;;;;10.26;100.00;100333.47;6219479;23;20088;-76
2022/12/31 04:07:23;;;;;;;2.55;0.90;;;;;;;10.25;100.00;100324.00;6192839;23;20021;-78
2022/12/31 04:09:49;;;;;;;5.05;1.17;;;;;;;10.23;100.00;100326.38;6219172;23;20507;-76
2022/12/31 04:12:16;;;;;;;2.60;0.80;;;;;;;10.21;100.00;100318.09;6219454;23;20020;-76
2022/12/31 04:14:42;;;;;;;1.60;0.80;;;;;;;10.19;100.00;100313.22;6219242;23;20025;-76
2022/12/31 04:17:09;;;;;;;1.33;1.20;;;;;;;10.18;100.00;100314.38;6219135;23;20024;-75
2022/12/31 04:19:36;;;;;;;2.95;1.00;;;;;;;10.18;100.00;100309.06;6219825;23;20486;-75
2022/12/31 04:22:03;;;;;;;1.48;0.98;;;;;;;10.15;100.00;100301.97;6219580;23;20490;-75
2022/12/31 04:24:30;;;;;;;1.70;1.27;;;;;;;10.17;100.00;100304.19;6219296;23;20048;-75
2022/12/31 04:26:57;;;;;;;1.83;1.40;;;;;;;10.15;100.00;100293.25;6219361;23;20430;-78
2022/12/31 04:29:32;;;;;;;1.95;1.35;;;;;;;10.14;100.00;100286.44;6219090;23;20021;-76
2022/12/31 04:31:59;;;;;;;2.72;1.35;;;;;;;10.12;100.00;100289.56;6219398;23;20443;-77
2022/12/31 04:34:26;;;;;;;1.23;1.13;;;;;;;10.10;100.00;100299.91;6218636;23;20394;-76
2022/12/31 04:36:52;;;;;;;1.13;1.10;;;;;;;10.09;100.00;100290.44;6219297;23;20017;-78
2022/12/31 04:39:19;;;;;;;1.77;1.67;;;;;;;10.06;100.00;100304.63;6167758;23;20423;-75
2022/12/31 04:41:45;;;;;;;2.30;1.35;;;;;;;10.07;100.00;100310.69;6219438;23;20443;-75
2022/12/31 04:44:12;;;;;;;1.70;1.60;;;;;;;10.06;100.00;100315.28;6218500;23;20065;-76
2022/12/31 04:46:38;;;;;;;1.45;1.35;;;;;;;10.07;100.00;100306.09;6219473;23;20024;-76
2022/12/31 04:49:05;;;;;;;1.70;1.60;;;;;;;10.07;100.00;100313.34;6219078;23;20430;-76
2022/12/31 04:51:32;;;;;;;1.83;1.67;;;;;;;10.07;100.00;100319.41;6219906;23;20013;-76
2022/12/31 04:53:59;;;;;;;2.85;1.80;;;;;;;10.07;100.00;100314.09;6219202;23;20013;-76
2022/12/31 04:56:27;;;;;;;1.88;1.77;;;;;;;10.07;100.00;100314.09;6219391;23;20052;-76
2022/12/31 04:58:54;;;;;;;1.70;1.60;;;;;;;10.08;100.00;100320.16;6192049;23;20024;-77
2022/12/31 05:01:20;;;;;;;2.30;2.10;;;;;;;10.08;100.00;100323.53;6219346;23;20157;-76
2022/12/31 05:03:47;;;;;;;2.40;2.30;;;;;;;10.08;100.00;100302.28;6219346;23;20013;-76
2022/12/31 05:06:17;;;;;;;2.67;2.33;;;;;;;10.07;100.00;100303.44;6219253;23;20017;-76
2022/12/31 05:08:44;;;;;;;2.85;2.70;;;;;;;10.08;100.00;100318.22;6219575;23;20021;-76
2022/12/31 05:11:11;;;;;;;2.72;2.40;;;;;;;10.09;100.00;100334.91;6219062;23;20032;-76
2022/12/31 05:13:38;;;;;;;1.98;1.88;;;;;;;10.09;100.00;100316.31;6218715;23;20351;-76
2022/12/31 05:16:05;;;;;;;2.58;1.98;;;;;;;10.08;100.00;100310.25;6219261;23;20076;-76
2022/12/31 05:18:33;;;;;;;1.70;1.60;;;;;;;10.10;100.00;100325.75;6219541;23;20013;-77
2022/12/31 05:20:59;;;;;;;2.08;1.98;;;;;;;10.10;100.00;100309.81;6219158;23;20017;-76
2022/12/31 05:23:26;;;;;;;1.70;1.60;;;;;;;10.10;100.00;100318.53;6219174;23;20020;-76
2022/12/31 05:25:53;;;;;;;2.08;1.42;;;;;;;10.10;100.00;100307.88;6218992;23;20153;-76
2022/12/31 05:28:20;;;;;;;4.53;1.40;;;;;;;10.12;100.00;100321.47;6218605;23;20021;-76
2022/12/31 05:30:48;;;;;;;1.60;1.60;;;;;;;10.13;100.00;100311.56;6219376;23;20013;-76
2022/12/31 05:33:16;;;;;;;1.60;1.50;;;;;;;10.15;100.00;100323.25;6218958;23;20044;-76
2022/12/31 05:35:43;;;;;;;1.60;1.50;;;;;;;10.16;100.00;100314.09;6192023;23;20025;-77
2022/12/31 05:38:10;;;;;;;1.20;1.20;;;;;;;10.19;100.00;100342.47;6218637;23;20017;-76
2022/12/31 05:40:37;;;;;;;1.25;1.25;;;;;;;10.22;100.00;100335.53;6219194;23;20447;-76
2022/12/31 05:43:03;;;;;;;1.10;1.10;;;;;;;10.25;100.00;100330.06;6216520;23;20021;-76
2022/12/31 05:45:30;;;;;;;2.35;1.17;;;;;;;10.27;100.00;100330.34;6190336;23;20470;-76
2022/12/31 05:47:57;;;;;;;1.40;1.38;;;;;;;10.30;100.00;100328.72;6216863;23;20518;-76
2022/12/31 05:50:23;;;;;;;1.20;1.20;;;;;;;10.31;100.00;100319.56;6216831;23;20017;-76
2022/12/31 05:52:54;;;;;;;1.17;1.17;;;;;;;10.33;100.00;100325.16;6216556;23;20429;-77
2022/12/31 05:55:21;;;;;;;1.25;1.25;;;;;;;10.35;100.00;100320.16;6215536;23;20443;-77
2022/12/31 05:57:48;;;;;;;1.27;1.27;;;;;;;10.38;100.00;100339.78;6217253;23;20475;-76
2022/12/31 06:00:15;;;;;;;1.63;1.52;;;;;;;10.41;100.00;100321.00;6214475;23;20463;-76
2022/12/31 06:02:41;;;;;;;1.23;1.23;;;;;;;10.42;100.00;100327.78;6189937;23;20021;-76
2022/12/31 06:05:08;;;;;;;2.58;1.05;;;;;;;10.44;100.00;100328.09;6215953;23;20024;-76
2022/12/31 06:07:35;;;;;;;1.13;1.08;;;;;;;10.47;100.00;100323.78;6217003;23;20017;-76
2022/12/31 06:10:03;;;;;;;0.90;0.90;;;;;;;10.48;100.00;100317.28;6215989;23;20021;-77
2022/12/31 06:12:30;;;;;;;1.33;1.10;;;;;;;10.51;100.00;100319.78;6216799;23;20017;-77
2022/12/31 06:14:56;;;;;;;1.00;1.00;;;;;;;10.52;100.00;100323.91;6190386;23;20028;-77
2022/12/31 06:17:23;;;;;;;1.10;1.10;;;;;;;10.54;100.00;100339.44;6216615;23;20013;-77
2022/12/31 06:19:49;;;;;;;1.13;1.10;;;;;;;10.53;100.00;100335.31;6216624;23;20013;-77
2022/12/31 06:22:16;;;;;;;1.15;1.15;;;;;;;10.55;100.00;100331.00;6216689;23;20434;-77
2022/12/31 06:24:43;;;;;;;1.05;1.05;;;;;;;10.56;100.00;100331.75;6216173;23;20439;-76
2022/12/31 06:27:09;;;;;;;1.27;1.27;;;;;;;10.59;100.00;100334.25;6216217;23;20024;-76
2022/12/31 06:29:36;;;;;;;1.55;1.48;;;;;;;10.60;100.00;100327.00;6217045;23;20025;-76
2022/12/31 06:32:02;;;;;;;1.30;1.30;;;;;;;10.62;100.00;100338.69;6217285;23;20021;-77
2022/12/31 06:34:29;;;;;;;1.50;1.40;;;;;;;10.63;100.00;100340.16;6217523;23;20443;-77
2022/12/31 06:36:56;;;;;;;1.70;1.60;;;;;;;10.65;100.00;100337.06;6215424;23;20046;-77
2022/12/31 06:39:23;;;;;;;1.70;1.60;;;;;;;10.67;100.00;100353.31;6216956;23;20432;-77
2022/12/31 06:41:49;;;;;;;2.00;1.75;;;;;;;10.69;100.00;100350.94;6170979;23;1075011;-76
2022/12/31 06:44:16;;;;;;;1.80;1.70;;;;;;;10.71;100.00;100351.22;6219426;23;20091;-76
2022/12/31 06:46:42;;;;;;;2.47;1.92;;;;;;;10.77;100.00;100362.75;6219665;23;20019;-76
2022/12/31 06:49:09;;;;;;;2.15;1.83;;;;;;;10.77;100.00;100354.75;6218835;23;20021;-74
2022/12/31 06:51:35;;;;;;;1.90;1.80;;;;;;;10.82;100.00;100366.69;6219507;23;20048;-80
2022/12/31 06:54:02;;;;;;;1.98;1.88;;;;;;;10.84;100.00;100359.75;6218429;23;20418;-79
2022/12/31 06:56:28;;;;;;;2.42;2.22;;;;;;;10.87;100.00;100368.75;6219398;23;20013;-79
2022/12/31 06:59:00;;;;;;;;;;;;;;;10.90;100.00;100373.19;6221230;23;20439;-81
2022/12/31 07:01:57;;;;;;;7.68;2.33;;;;;;;10.96;100.00;100358.81;6193950;23;19926;-81
2022/12/31 07:05:01;;;;;;;2.70;2.60;;;;;;;11.00;100.00;100346.06;6220947;23;20021;-77
2022/12/31 07:07:52;;;;;;;2.22;2.13;;;;;;;11.08;100.00;100343.81;6220593;23;20469;-78
2022/12/31 07:10:28;;;;;;;2.38;2.17;;;;;;;11.12;100.00;100347.06;6193975;23;20032;-79
2022/12/31 07:13:26;;;;;;;4.05;1.98;;;;;;;11.17;100.00;100349.13;6193814;23;20017;-79
2022/12/31 07:16:08;;;;;;;1.90;1.80;;;;;;;11.21;100.00;100346.25;6220871;23;20462;-80
2022/12/31 07:18:44;;;;;;;;;;;;;;;11.26;100.00;100342.97;6221747;23;20020;-81
2022/12/31 07:21:14;;;;;;;2.20;2.00;;;;;;;11.31;100.00;100335.09;6221053;23;20393;-81
2022/12/31 07:23:41;;;;;;;1.13;1.02;;;;;;;11.38;100.00;100330.63;6220310;23;20511;-78
2022/12/31 07:26:29;;;;;;;0.95;0.95;;;;;;;11.45;100.00;100352.34;6219812;23;20023;-78
2022/12/31 07:29:16;;;;;;;0.80;0.80;;;;;;;11.50;100.00;100346.38;6220265;23;20111;-78
2022/12/31 07:31:51;;;;;;;2.95;0.70;;;;;;;11.57;100.00;100351.38;6220836;23;20462;-78
2022/12/31 07:34:29;;;;;;;0.52;0.45;;;;;;;11.63;100.00;100354.88;6220872;23;20091;-78
2022/12/31 07:37:11;;;;;;;1.23;0.32;;;;;;;11.68;100.00;100356.91;6217913;23;20084;-78
2022/12/31 07:39:53;;;;;;;0.30;0.30;;;;;;;11.70;100.00;100370.53;6220504;23;20013;-77
2022/12/31 07:42:31;;;;;;;0.30;0.30;;;;;;;11.76;100.00;100362.63;6220245;23;20065;-78
2022/12/31 07:45:13;;;;;;;0.20;0.20;;;;;;;11.79;100.00;100363.69;6220301;23;20436;-78
2022/12/31 07:47:40;;;;;;;1.17;0.22;;;;;;;11.82;100.00;100381.44;6220637;23;20024;-78
2022/12/31 07:50:14;;;;;;;0.73;0.30;;;;;;;11.83;100.00;100378.31;6220116;23;20028;-78
2022/12/31 07:52:41;;;;;;;0.30;0.30;;;;;;;11.82;100.00;100368.09;6220310;23;20500;-78
2022/12/31 07:55:09;;;;;;;0.40;0.40;;;;;;;11.84;100.00;100385.13;6219972;23;20013;-77
2022/12/31 07:57:46;;;;;;;0.57;0.40;;;;;;;11.90;100.00;100391.31;6220320;23;20017;-78
2022/12/31 08:00:13;;;;;;;1.33;0.50;;;;;;;11.92;100.00;100383.59;6220402;23;20415;-77
2022/12/31 08:02:56;;;;;;;0.95;0.70;;;;;;;11.92;100.00;100374.84;6220728;23;20025;-76
2022/12/31 08:05:49;;;;;;;0.63;0.57;;;;;;;11.95;100.00;100373.94;6220507;23;20009;-77
2022/12/31 08:08:45;;;;;;;0.80;0.80;;;;;;;11.97;100.00;100388.28;6158055;23;20463;-78
2022/12/31 08:11:19;;;;;;;0.60;0.60;;;;;;;11.98;100.00;100392.44;6220071;23;20055;-76
2022/12/31 08:13:46;;;;;;;0.60;0.60;;;;;;;12.00;100.00;100395.34;6220743;23;20420;-76
2022/12/31 08:16:13;;;;;;;1.20;0.70;;;;;;;12.01;100.00;100382.75;6220084;23;20017;-76
2022/12/31 08:18:40;;;;;;;0.75;0.75;;;;;;;12.02;100.00;100400.25;6220568;23;20021;-75
2022/12/31 08:21:32;;;;;;;1.38;0.80;;;;;;;12.03;100.00;100383.03;6219648;23;20072;-76
2022/12/31 08:24:14;;;;;;;1.30;1.10;;;;;;;12.03;100.00;100388.38;6219865;23;20013;-75
2022/12/31 08:27:10;;;;;;;0.75;0.75;;;;;;;12.03;100.00;100393.72;6220683;23;20009;-76
2022/12/31 08:29:52;;;;;;;3.05;0.70;;;;;;;12.03;100.00;100388.38;6220064;23;20013;-75
2022/12/31 08:32:33;;;;;;;0.98;0.63;;;;;;;12.02;100.00;100397.56;6220616;23;20052;-75
2022/12/31 08:35:21;;;;;;;0.80;0.57;;;;;;;12.02;100.00;100408.25;6218515;23;20018;-76
2022/12/31 08:38:11;;;;;;;0.65;0.65;;;;;;;12.00;100.00;100426.63;6217727;23;20013;-75
2022/12/31 08:40:56;;;;;;;2.78;0.70;;;;;;;12.00;100.00;100454.03;6219477;23;20024;-76
2022/12/31 08:43:39;;;;;;;2.20;0.90;;;;;;;12.00;100.00;100453.31;6219300;23;20017;-76
2022/12/31 08:46:15;;;;;;;0.75;0.75;;;;;;;12.00;100.00;100447.97;6219204;23;20453;-76
2022/12/31 08:48:42;;;;;;;0.60;0.60;;;;;;;11.99;100.00;100457.94;6219684;23;20079;-76
2022/12/31 08:51:19;;;;;;;2.20;0.77;;;;;;;11.98;100.00;100461.06;6219412;23;20049;-76
2022/12/31 08:53:47;;;;;;;0.70;0.70;;;;;;;11.97;100.00;100472.91;6220404;23;20112;-76
2022/12/31 08:56:28;;;;;;;0.70;0.60;;;;;;;11.96;100.00;100487.44;6220249;23;20013;-75
2022/12/31 08:59:34;;;;;;;0.63;0.63;;;;;;;11.93;100.00;100489.09;6219914;23;20010;-76
2022/12/31 09:02:06;;;;;;;0.85;0.70;;;;;;;11.92;100.00;100503.63;6219507;23;20418;-76
2022/12/31 09:04:52;;;;;;;1.02;0.55;;;;;;;11.92;100.00;100492.94;6219521;23;20020;-76
2022/12/31 09:07:26;;;;;;;2.28;0.85;;;;;;;11.92;100.00;100500.22;6220417;23;20024;-77
2022/12/31 09:09:59;;;;;;;3.90;1.00;;;;;;;11.94;100.00;100508.50;6219767;23;20056;-77
2022/12/31 09:12:36;;;;;;;0.50;0.50;;;;;;;11.94;100.00;100505.84;6220301;23;20048;-77
2022/12/31 09:15:27;;;;;;;0.73;0.57;;;;;;;11.94;100.00;100519.91;6219780;23;20345;-77
2022/12/31 09:17:54;;;;;;;0.82;0.82;;;;;;;11.95;100.00;100513.38;6220299;23;20048;-77
2022/12/31 09:20:24;;;;;;;1.15;0.60;;;;;;;11.98;100.00;100514.41;6219291;23;20013;-77
2022/12/31 09:22:53;;;;;;;3.40;0.75;;;;;;;12.02;100.00;100518.34;6220267;23;20049;-77
2022/12/31 09:25:21;;;;;;;1.20;0.77;;;;;;;12.07;100.00;100521.59;6220031;23;20017;-77
2022/12/31 09:28:04;;;;;;;1.15;1.02;;;;;;;12.10;100.00;100520.69;6220408;23;20044;-78
2022/12/31 09:30:47;;;;;;;0.98;0.85;;;;;;;12.14;100.00;100510.59;6220033;23;20464;-78
2022/12/31 09:33:32;;;;;;;1.55;1.08;;;;;;;12.18;100.00;100511.16;6219365;23;20109;-77
2022/12/31 09:36:07;;;;;;;1.13;1.02;;;;;;;12.23;100.00;100521.22;6219729;23;20088;-78
2022/12/31 09:38:40;;;;;;;1.70;1.15;;;;;;;12.26;100.00;100512.28;6220492;23;20020;-77
2022/12/31 09:41:23;;;;;;;1.40;1.17;;;;;;;12.28;100.00;100521.31;6219080;23;20021;-77
2022/12/31 09:44:24;;;;;;;2.90;1.45;;;;;;;12.31;100.00;100509.72;6219463;23;20455;-78
2022/12/31 09:47:29;;;;;;;1.25;1.15;;;;;;;12.34;100.00;100519.50;6219657;23;20068;-78
2022/12/31 09:50:23;;;;;;;2.88;1.38;;;;;;;12.38;100.00;100522.00;6219631;23;20336;-78
2022/12/31 09:53:02;;;;;;;2.70;2.00;;;;;;;12.43;100.00;100533.94;6193160;23;20351;-77
2022/12/31 09:55:44;;;;;;;4.32;1.70;;;;;;;12.45;100.00;100526.22;6219824;23;20086;-77
2022/12/31 09:58:26;;;;;;;2.05;1.60;;;;;;;12.49;100.00;100532.13;6218243;23;20128;-77
2022/12/31 10:01:11;;;;;;;2.85;1.30;;;;;;;12.51;100.00;100532.41;6219557;23;20013;-77
2022/12/31 10:04:00;;;;;;;6.15;1.38;;;;;;;12.51;100.00;100537.75;6167628;23;20347;-76
2022/12/31 10:06:47;;;;;;;4.25;1.20;;;;;;;12.55;100.00;100530.31;6219997;23;20081;-76
2022/12/31 10:09:29;;;;;;;29.30;20.55;;;;;;;12.59;100.00;100522.84;6219649;23;20064;-77
2022/12/31 10:12:16;;;;;;;28.42;20.10;;;;;;;12.65;100.00;100537.06;6219481;23;20048;-77
2022/12/31 10:15:28;;;;;;;3.25;2.33;;;;;;;12.73;100.00;100537.44;6193250;23;20354;-77
2022/12/31 10:18:00;;;;;;;3.70;1.50;;;;;;;12.78;100.00;100528.78;6195758;23;20411;-77
2022/12/31 10:20:45;;;;;;;3.78;1.42;;;;;;;12.82;100.00;100530.06;6219509;23;20243;-77
2022/12/31 10:23:33;;;;;;;2.47;1.63;;;;;;;12.86;100.00;100529.88;6192864;23;20020;-77
2022/12/31 10:26:36;;;;;;;1.85;1.58;;;;;;;12.90;100.00;100525.84;6192336;23;20028;-76
2022/12/31 10:29:29;;;;;;;1.35;1.17;;;;;;;12.96;100.00;100528.59;6192308;23;20021;-77
2022/12/31 10:32:04;;;;;;;3.88;1.25;;;;;;;13.00;100.00;100531.84;6192571;23;20021;-77
2022/12/31 10:34:53;;;;;;;1.25;1.15;;;;;;;13.08;100.00;100543.63;6194081;23;20129;-76
2022/12/31 10:37:33;;;;;;;2.45;1.35;;;;;;;13.08;100.00;100538.28;6221075;23;20013;-77
2022/12/31 10:40:15;;;;;;;1.90;1.50;;;;;;;13.08;100.00;100540.22;6194002;23;20029;-76
2022/12/31 10:43:20;;;;;;;4.40;1.67;;;;;;;13.09;100.00;100544.38;6220968;23;20025;-77
2022/12/31 10:46:06;;;;;;;1.67;1.52;;;;;;;13.10;100.00;100538.56;6127126;23;20357;-77
2022/12/31 10:48:57;;;;;;;6.15;3.78;;;;;;;13.12;100.00;100538.09;6128574;23;20022;-77
2022/12/31 10:51:40;;;;;;;4.78;1.67;;;;;;;13.13;100.00;100553.69;6128426;23;20037;-77
2022/12/31 10:54:51;;;;;;;4.50;1.67;;;;;;;13.13;100.00;100539.59;6128053;23;20022;-77
2022/12/31 10:57:45;;;;;;;3.30;1.33;;;;;;;13.14;100.00;100543.72;6127672;23;20448;-76
2022/12/31 11:00:20;;;;;;;2.67;1.52;;;;;;;13.15;100.00;100545.19;6127519;23;20029;-76
2022/12/31 11:03:15;;;;;;;3.90;1.38;;;;;;;13.16;100.00;100531.41;6127566;23;20022;-75
2022/12/31 11:05:53;;;;;;;;;;;;;;;13.18;100.00;100537.03;6128551;23;20026;-76
2022/12/31 11:08:37;;;;;;;3.20;1.20;;;;;;;13.18;100.00;100544.31;6128574;23;19921;-75
2022/12/31 11:11:19;;;;;;;2.10;1.40;;;;;;;13.20;100.00;100529.25;6128020;23;20033;-75
2022/12/31 11:13:56;;;;;;;2.38;1.10;;;;;;;13.27;100.00;100533.50;6128106;23;20026;-76
2022/12/31 11:16:55;;;;;;;2.25;1.02;;;;;;;13.28;100.00;100537.66;6104678;23;20069;-75
2022/12/31 11:19:40;;;;;;;2.90;1.40;;;;;;;13.29;100.00;100537.19;6128255;23;20102;-76
2022/12/31 11:22:44;;;;;;;3.30;1.40;;;;;;;13.29;100.00;100536.44;6144811;23;20021;-75
2022/12/31 11:25:11;;;;;;;2.33;1.23;;;;;;;13.28;100.00;100527.69;6220289;23;20021;-75
2022/12/31 11:27:56;;;;;;;4.80;1.30;;;;;;;13.25;100.00;100535.91;6220663;23;20017;-75
2022/12/31 11:31:01;;;;;;;2.20;1.38;;;;;;;13.23;100.00;100541.69;6193267;23;20025;-75
2022/12/31 11:33:49;;;;;;;4.13;1.90;;;;;;;13.23;100.00;100527.59;6219232;23;20052;-75
2022/12/31 11:36:31;;;;;;;3.10;1.63;;;;;;;13.24;100.00;100531.75;6218885;23;20025;-75
2022/12/31 11:39:23;;;;;;;3.17;2.00;;;;;;;13.24;100.00;100542.44;6220120;23;20019;-75
2022/12/31 11:42:31;;;;;;;5.70;1.67;;;;;;;13.25;100.00;100549.25;6194707;23;20048;-75
2022/12/31 11:45:42;;;;;;;5.63;2.95;;;;;;;13.25;100.00;100550.00;6218454;23;20017;-75
2022/12/31 11:48:27;;;;;;;2.10;1.67;;;;;;;13.28;100.00;100543.00;6201712;23;20027;-76
2022/12/31 11:51:25;;;;;;;5.20;2.20;;;;;;;13.30;100.00;100549.34;6169231;23;20044;-75
2022/12/31 11:54:19;;;;;;;3.97;2.40;;;;;;;13.32;100.00;100546.97;6200573;23;20014;-76
2022/12/31 11:57:21;;;;;;;5.32;2.95;;;;;;;13.43;100.00;100551.00;6220356;23;20439;-76
2022/12/31 11:59:55;;;;;;;3.22;1.63;;;;;;;13.45;100.00;100546.66;6219943;23;20513;-76
2022/12/31 12:02:41;;;;;;;5.05;1.55;;;;;;;13.47;100.00;100538.19;6220600;23;20083;-76